createdAt,value
2019-01-26T00:00:52.293Z,10.30
2019-01-26T00:03:44.760Z,13.90
2019-01-26T00:05:55.690Z,10.90
2019-01-26T00:08:06.508Z,9.87
2019-01-26T00:10:17.458Z,10.30
2019-01-26T00:12:28.267Z,9.13
2019-01-26T00:14:39.082Z,10.73
2019-01-26T00:16:49.891Z,9.37
2019-01-26T00:19:00.735Z,9.47
2019-01-26T00:21:11.538Z,9.77
2019-01-26T00:23:22.333Z,10.03
2019-01-26T00:25:33.164Z,10.33
2019-01-26T00:27:43.986Z,10.90
2019-01-26T00:29:54.849Z,11.33
2019-01-26T00:32:05.651Z,9.30
2019-01-26T00:34:16.497Z,10.50
2019-01-26T00:36:27.323Z,10.47
2019-01-26T00:38:38.252Z,10.27
2019-01-26T00:40:49.073Z,10.57
2019-01-26T00:42:59.874Z,9.73
2019-01-26T00:45:32.467Z,12.70
2019-01-26T00:47:43.262Z,10.90
2019-01-26T00:49:54.095Z,12.53
2019-01-26T00:52:04.876Z,12.30
2019-01-26T00:54:15.713Z,10.60
2019-01-26T00:56:26.630Z,11.37
2019-01-26T00:58:37.556Z,11.43
2019-01-26T01:00:48.375Z,9.17
2019-01-26T01:02:59.200Z,11.60
2019-01-26T01:05:10.225Z,13.03
2019-01-26T01:07:21.129Z,12.27
2019-01-26T01:09:31.938Z,11.07
2019-01-26T01:11:42.796Z,10.57
2019-01-26T01:13:53.592Z,11.97
2019-01-26T01:16:04.518Z,10.57
2019-01-26T01:18:15.333Z,10.73
2019-01-26T01:20:26.149Z,10.60
2019-01-26T01:22:36.954Z,10.20
2019-01-26T01:24:47.749Z,10.67
2019-01-26T01:26:58.562Z,12.33
2019-01-26T01:29:09.349Z,10.10
2019-01-26T01:31:20.163Z,11.33
2019-01-26T01:33:30.947Z,12.07
2019-01-26T01:35:41.764Z,13.00
2019-01-26T01:37:52.557Z,12.10
2019-01-26T01:40:45.005Z,10.70
2019-01-26T01:42:55.821Z,10.80
2019-01-26T01:45:48.264Z,11.60
2019-01-26T01:47:59.091Z,13.90
2019-01-26T01:50:51.518Z,13.40
2019-01-26T01:53:02.450Z,11.23
2019-01-26T01:55:13.340Z,14.00
2019-01-26T01:57:24.173Z,13.20
2019-01-26T01:59:34.968Z,9.37
2019-01-26T02:01:45.783Z,12.73
2019-01-26T02:03:56.600Z,10.23
2019-01-26T02:06:07.398Z,10.97
2019-01-26T02:08:18.305Z,11.87
2019-01-26T02:10:29.295Z,11.53
2019-01-26T02:12:40.130Z,10.80
2019-01-26T02:14:50.926Z,12.17
2019-01-26T02:17:01.881Z,9.17
2019-01-26T02:19:13.433Z,10.87
2019-01-26T02:21:24.229Z,11.87
2019-01-26T02:23:35.063Z,11.83
2019-01-26T02:25:45.852Z,11.20
2019-01-26T02:27:56.667Z,11.50
2019-01-26T02:30:27.337Z,10.40
2019-01-26T02:32:38.125Z,10.40
2019-01-26T02:34:48.952Z,10.90
2019-01-26T02:36:59.843Z,10.10
2019-01-26T02:39:10.672Z,12.93
2019-01-26T02:41:21.495Z,10.70
2019-01-26T02:43:32.344Z,10.83
2019-01-26T02:45:43.254Z,11.27
2019-01-26T02:47:54.052Z,10.80
2019-01-26T02:50:46.513Z,16.80
2019-01-26T02:52:57.303Z,10.60
2019-01-26T02:55:08.215Z,11.57
2019-01-26T02:57:19.017Z,11.20
2019-01-26T02:59:29.821Z,11.53
2019-01-26T03:01:40.666Z,11.93
2019-01-26T03:03:51.435Z,12.07
2019-01-26T03:06:43.915Z,14.10
2019-01-26T03:08:54.743Z,11.70
2019-01-26T03:11:05.657Z,11.10
2019-01-26T03:13:16.461Z,12.40
2019-01-26T03:15:27.368Z,11.23
2019-01-26T03:17:38.182Z,10.23
2019-01-26T03:19:49.097Z,11.40
2019-01-26T03:21:59.885Z,11.33
2019-01-26T03:24:10.680Z,12.17
2019-01-26T03:26:21.496Z,12.80
2019-01-26T03:28:32.280Z,12.30
2019-01-26T03:30:43.104Z,13.40
2019-01-26T03:32:54.038Z,11.97
2019-01-26T03:37:57.151Z,12.07
2019-01-26T03:40:49.608Z,10.07
2019-01-26T03:43:00.399Z,11.83
2019-01-26T03:45:52.874Z,10.70
2019-01-26T03:48:03.658Z,12.10
2019-01-26T03:50:56.118Z,10.17
2019-01-26T03:53:06.913Z,11.53
2019-01-26T03:55:59.370Z,11.47
2019-01-26T03:58:10.223Z,9.67
2019-01-26T04:01:02.676Z,13.37
2019-01-26T04:03:13.588Z,11.37
2019-01-26T04:05:24.610Z,10.30
2019-01-26T04:07:35.417Z,11.87
2019-01-26T04:09:46.201Z,10.77
2019-01-26T04:11:57.023Z,10.83
2019-01-26T04:14:07.857Z,12.00
2019-01-26T04:16:18.657Z,9.73
2019-01-26T04:18:29.466Z,9.00
2019-01-26T04:20:40.271Z,10.03
2019-01-26T04:22:51.060Z,9.53
2019-01-26T04:25:43.518Z,11.13
2019-01-26T04:27:54.339Z,7.93
2019-01-26T04:30:46.801Z,11.47
2019-01-26T04:32:57.627Z,10.03
2019-01-26T04:35:50.075Z,10.13
2019-01-26T04:38:00.926Z,8.77
2019-01-26T04:40:53.381Z,8.83
2019-01-26T04:43:04.295Z,8.10
2019-01-26T04:45:56.760Z,10.07
2019-01-26T04:48:07.701Z,8.40
2019-01-26T04:51:00.169Z,7.70
2019-01-26T04:53:10.986Z,8.90
2019-01-26T04:55:21.905Z,8.53
2019-01-26T04:57:32.715Z,9.20
2019-01-26T04:59:43.563Z,9.10
2019-01-26T05:01:54.314Z,6.97
2019-01-26T05:04:05.149Z,7.40
2019-01-26T05:06:15.945Z,9.77
2019-01-26T05:08:26.725Z,9.00
2019-01-26T05:10:37.568Z,7.73
2019-01-26T05:13:30.014Z,9.17
2019-01-26T05:15:40.827Z,6.90
2019-01-26T05:17:51.648Z,8.10
2019-01-26T05:20:44.107Z,8.10
2019-01-26T05:22:54.914Z,7.70
2019-01-26T05:25:05.817Z,6.80
2019-01-26T05:27:16.610Z,8.13
2019-01-26T05:29:27.410Z,7.23
2019-01-26T05:31:38.230Z,9.10
2019-01-26T05:33:49.026Z,8.30
2019-01-26T05:35:59.950Z,8.00
2019-01-26T05:38:10.852Z,7.13
2019-01-26T05:40:21.806Z,7.23
2019-01-26T05:42:32.593Z,6.50
2019-01-26T05:44:43.406Z,6.47
2019-01-26T05:46:54.212Z,6.47
2019-01-26T05:49:05.024Z,6.97
2019-01-26T05:51:15.835Z,6.07
2019-01-26T05:53:26.639Z,9.20
2019-01-26T05:55:37.552Z,8.63
2019-01-26T05:57:48.377Z,5.63
2019-01-26T05:59:59.150Z,7.93
2019-01-26T06:02:10.068Z,6.80
2019-01-26T06:04:20.875Z,6.30
2019-01-26T06:06:31.694Z,5.70
2019-01-26T06:08:42.494Z,6.17
2019-01-26T06:10:53.336Z,5.23
2019-01-26T06:13:04.155Z,6.37
2019-01-26T06:15:15.060Z,5.70
2019-01-26T06:17:25.926Z,7.47
2019-01-26T06:19:36.681Z,6.80
2019-01-26T06:21:47.510Z,6.40
2019-01-26T06:23:58.362Z,5.17
2019-01-26T06:26:09.167Z,6.80
2019-01-26T06:28:19.977Z,5.60
2019-01-26T06:30:30.800Z,5.63
2019-01-26T06:32:41.613Z,5.53
2019-01-26T06:34:52.400Z,4.97
2019-01-26T06:37:03.226Z,5.00
2019-01-26T06:39:14.013Z,5.07
2019-01-26T06:41:24.826Z,4.37
2019-01-26T06:43:35.652Z,4.47
2019-01-26T06:46:06.325Z,4.50
2019-01-26T06:48:17.220Z,6.03
2019-01-26T06:53:00.400Z,4.67
2019-01-26T06:55:11.307Z,5.00
2019-01-26T06:59:54.475Z,4.30
2019-01-26T07:02:05.281Z,6.03
2019-01-26T07:04:36.083Z,5.07
2019-01-26T07:09:19.285Z,5.83
2019-01-26T07:11:30.100Z,5.80
2019-01-26T07:13:40.914Z,5.07
2019-01-26T07:18:24.178Z,5.10
2019-01-26T07:20:35.105Z,5.57
2019-01-26T07:22:45.971Z,4.57
2019-01-26T07:24:56.798Z,6.20
2019-01-26T07:27:07.609Z,6.20
2019-01-26T07:29:18.542Z,5.43
2019-01-26T07:31:29.334Z,4.87
2019-01-26T07:33:40.176Z,4.63
2019-01-26T07:35:50.984Z,4.30
2019-01-26T07:38:01.785Z,4.13
2019-01-26T07:40:34.505Z,2.90
2019-01-26T07:42:45.289Z,3.70
2019-01-26T07:44:56.146Z,4.37
2019-01-26T07:47:06.935Z,5.00
2019-01-26T07:49:17.769Z,3.10
2019-01-26T07:51:28.715Z,4.00
2019-01-26T07:53:39.522Z,3.37
2019-01-26T07:55:50.349Z,3.83
2019-01-26T07:58:01.172Z,3.80
2019-01-26T08:00:33.778Z,3.77
2019-01-26T08:02:44.584Z,4.23
2019-01-26T08:04:55.408Z,2.87
2019-01-26T08:07:06.239Z,4.80
2019-01-26T08:09:17.031Z,3.47
2019-01-26T08:11:27.870Z,2.10
2019-01-26T08:13:38.736Z,3.20
2019-01-26T08:15:49.696Z,3.77
2019-01-26T08:18:00.586Z,2.53
2019-01-26T08:20:53.081Z,3.00
2019-01-26T08:23:03.968Z,2.30
2019-01-26T08:25:56.457Z,2.00
2019-01-26T08:28:07.242Z,2.63
2019-01-26T08:30:59.743Z,2.87
2019-01-26T08:33:10.551Z,3.60
2019-01-26T08:35:21.444Z,2.03
2019-01-26T08:37:32.265Z,1.97
2019-01-26T08:39:43.065Z,1.67
2019-01-26T08:41:53.894Z,2.57
2019-01-26T08:44:04.720Z,2.07
2019-01-26T08:46:15.546Z,2.80
2019-01-26T08:48:31.176Z,2.30
2019-01-26T08:50:39.072Z,2.13
2019-01-26T08:52:49.926Z,2.10
2019-01-26T08:55:00.781Z,3.33
2019-01-26T08:57:11.565Z,2.67
2019-01-26T08:59:22.393Z,2.70
2019-01-26T09:01:33.188Z,1.83
2019-01-26T09:08:24.814Z,2.87
2019-01-26T09:10:35.640Z,3.17
2019-01-26T09:12:46.571Z,4.13
2019-01-26T09:14:57.392Z,3.83
2019-01-26T09:17:08.224Z,2.60
2019-01-26T09:19:19.122Z,2.50
2019-01-26T09:21:30.095Z,3.43
2019-01-26T09:23:40.917Z,3.23
2019-01-26T09:25:51.728Z,3.83
2019-01-26T09:28:03.257Z,4.50
2019-01-26T09:30:55.715Z,4.17
2019-01-26T09:33:06.558Z,4.90
2019-01-26T09:35:17.362Z,3.93
2019-01-26T09:37:28.262Z,3.30
2019-01-26T09:39:39.088Z,5.23
2019-01-26T09:41:49.910Z,4.13
2019-01-26T09:44:00.840Z,4.87
2019-01-26T09:46:11.739Z,4.13
2019-01-26T09:49:04.525Z,4.33
2019-01-26T09:51:35.553Z,4.70
2019-01-26T09:53:48.805Z,4.30
2019-01-26T09:55:59.922Z,5.23
2019-01-26T09:58:11.308Z,4.17
2019-01-26T10:01:03.809Z,3.80
2019-01-26T10:03:14.714Z,4.53
2019-01-26T10:05:25.627Z,4.30
2019-01-26T10:07:36.541Z,5.50
2019-01-26T10:09:47.375Z,5.10
2019-01-26T10:11:58.225Z,4.43
2019-01-26T10:14:09.082Z,3.90
2019-01-26T10:16:20.190Z,4.40
2019-01-26T10:18:31.018Z,3.20
2019-01-26T10:21:23.485Z,5.10
2019-01-26T10:23:34.281Z,4.90
2019-01-26T10:25:48.791Z,4.57
2019-01-26T10:27:58.013Z,5.20
2019-01-26T10:30:50.468Z,5.23
2019-01-26T10:33:01.298Z,4.17
2019-01-26T10:35:12.197Z,4.67
2019-01-26T10:39:45.554Z,5.40
2019-01-26T10:46:40.917Z,5.77
2019-01-26T10:48:51.710Z,4.87
2019-01-26T10:51:02.768Z,4.90
2019-01-26T10:53:13.593Z,4.60
2019-01-26T10:55:24.396Z,3.97
2019-01-26T10:57:35.229Z,4.20
2019-01-26T10:59:46.042Z,4.57
2019-01-26T11:01:56.904Z,4.47
2019-01-26T11:04:07.759Z,4.20
2019-01-26T11:06:18.718Z,3.90
2019-01-26T11:08:29.564Z,5.17
2019-01-26T11:10:40.391Z,4.37
2019-01-26T11:12:51.311Z,3.77
2019-01-26T11:15:43.798Z,4.57
2019-01-26T11:17:54.617Z,3.23
2019-01-26T11:20:25.297Z,3.17
2019-01-26T11:22:36.149Z,5.37
2019-01-26T11:24:46.939Z,5.87
2019-01-26T11:26:57.751Z,3.37
2019-01-26T11:29:08.580Z,3.47
2019-01-26T11:31:19.499Z,4.27
2019-01-26T11:33:30.327Z,4.40
2019-01-26T11:35:41.154Z,5.27
2019-01-26T11:37:51.963Z,3.53
2019-01-26T11:40:44.456Z,3.73
2019-01-26T11:42:55.269Z,6.23
2019-01-26T11:45:47.743Z,3.70
2019-01-26T11:52:36.132Z,3.10
2019-01-26T11:59:24.670Z,2.37
2019-01-26T12:01:55.351Z,3.77
2019-01-26T12:08:47.413Z,4.77
2019-01-26T12:10:58.226Z,3.70
2019-01-26T12:13:09.078Z,3.77
2019-01-26T12:15:19.971Z,4.67
2019-01-26T12:17:30.780Z,3.27
2019-01-26T12:19:41.623Z,3.13
2019-01-26T12:21:52.447Z,3.43
2019-01-26T12:24:03.342Z,4.70
2019-01-26T12:26:14.214Z,4.30
2019-01-26T12:28:25.032Z,3.80
2019-01-26T12:30:35.950Z,3.40
2019-01-26T12:32:46.752Z,3.30
2019-01-26T12:34:57.605Z,3.17
2019-01-26T12:37:08.403Z,2.70
2019-01-26T12:39:19.205Z,2.63
2019-01-26T12:41:30.049Z,3.57
2019-01-26T12:43:40.941Z,3.47
2019-01-26T12:46:11.642Z,2.40
2019-01-26T12:48:22.445Z,3.43
2019-01-26T12:50:33.271Z,2.97
2019-01-26T12:52:44.092Z,3.67
2019-01-26T12:54:55.089Z,3.20
2019-01-26T12:57:06.024Z,3.83
2019-01-26T12:59:16.986Z,3.70
2019-01-26T13:01:27.875Z,3.80
2019-01-26T13:03:38.679Z,4.03
2019-01-26T13:08:08.226Z,5.03
2019-01-26T13:10:58.758Z,3.40
2019-01-26T13:13:09.722Z,3.00
2019-01-26T13:15:20.591Z,3.17
2019-01-26T13:17:31.447Z,3.27
2019-01-26T13:19:42.237Z,2.80
2019-01-26T13:21:53.075Z,3.10
2019-01-26T13:24:03.985Z,2.07
2019-01-26T13:26:14.774Z,2.80
2019-01-26T13:28:25.636Z,2.90
2019-01-26T13:30:36.436Z,3.23
2019-01-26T13:35:26.017Z,2.23
2019-01-26T13:37:36.874Z,2.57
2019-01-26T13:39:47.681Z,2.20
2019-01-26T13:41:58.484Z,3.07
2019-01-26T13:44:09.321Z,2.77
2019-01-26T13:46:20.236Z,2.13
2019-01-26T13:48:31.078Z,2.70
2019-01-26T13:50:41.995Z,2.33
2019-01-26T13:52:52.842Z,1.60
2019-01-26T13:55:45.283Z,2.17
2019-01-26T13:57:56.121Z,3.80
2019-01-26T14:00:48.610Z,3.17
2019-01-26T14:02:59.483Z,2.47
2019-01-26T14:05:10.356Z,2.87
2019-01-26T14:07:42.947Z,2.37
2019-01-26T14:09:53.785Z,2.20
2019-01-26T14:12:04.601Z,2.70
2019-01-26T14:14:15.430Z,4.00
2019-01-26T14:16:46.177Z,3.17
2019-01-26T14:18:57.015Z,6.03
2019-01-26T14:21:07.836Z,3.33
2019-01-26T14:23:18.636Z,3.23
2019-01-26T14:25:29.478Z,3.83
2019-01-26T14:27:40.382Z,3.80
2019-01-26T14:29:51.230Z,4.37
2019-01-26T14:32:02.138Z,6.50
2019-01-26T14:34:13.046Z,3.53
2019-01-26T14:36:23.868Z,3.77
2019-01-26T14:38:34.685Z,2.80
2019-01-26T14:40:45.565Z,2.90
2019-01-26T14:42:56.367Z,3.37
2019-01-26T14:45:48.861Z,2.20
2019-01-26T14:47:59.671Z,2.43
2019-01-26T14:50:52.142Z,4.37
2019-01-26T14:53:03.152Z,2.63
2019-01-26T14:55:55.629Z,3.43
2019-01-26T14:58:06.575Z,2.57
2019-01-26T15:00:59.326Z,2.60
2019-01-26T15:03:10.165Z,3.00
2019-01-26T15:06:02.654Z,2.93
2019-01-26T15:08:13.499Z,2.80
2019-01-26T15:10:24.425Z,4.67
2019-01-26T15:12:35.315Z,2.80
2019-01-26T15:14:46.262Z,2.00
2019-01-26T15:16:57.090Z,2.67
2019-01-26T15:19:08.019Z,2.27
2019-01-26T15:21:18.829Z,3.83
2019-01-26T15:23:29.781Z,2.43
2019-01-26T15:25:40.738Z,3.30
2019-01-26T15:27:51.608Z,3.17
2019-01-26T15:30:44.050Z,2.73
2019-01-26T15:32:55.080Z,2.13
2019-01-26T15:35:05.977Z,3.30
2019-01-26T15:37:16.845Z,3.20
2019-01-26T15:39:27.656Z,2.67
2019-01-26T15:41:38.487Z,2.30
2019-01-26T15:43:49.381Z,2.27
2019-01-26T15:46:00.284Z,2.17
2019-01-26T15:48:11.209Z,2.93
2019-01-26T15:50:22.014Z,2.47
2019-01-26T15:52:32.847Z,3.43
2019-01-26T15:54:43.657Z,3.20
2019-01-26T15:56:54.471Z,3.20
2019-01-26T15:59:05.289Z,2.30
2019-01-26T16:01:16.115Z,2.73
2019-01-26T16:03:27.172Z,3.03
2019-01-26T16:05:38.057Z,3.03
2019-01-26T16:07:49.092Z,2.70
2019-01-26T16:12:17.426Z,3.13
2019-01-26T16:14:28.267Z,2.77
2019-01-26T16:16:39.069Z,2.27
2019-01-26T16:18:49.923Z,6.47
2019-01-26T16:21:00.858Z,4.07
2019-01-26T16:23:11.775Z,4.07
2019-01-26T16:25:22.739Z,3.87
2019-01-26T16:27:33.599Z,3.03
2019-01-26T16:29:44.467Z,3.33
2019-01-26T16:31:55.278Z,2.20
2019-01-26T16:34:06.230Z,2.27
2019-01-26T16:36:17.109Z,5.37
2019-01-26T16:38:27.991Z,4.27
2019-01-26T16:40:39.078Z,2.00
2019-01-26T16:42:49.959Z,2.23
2019-01-26T16:45:00.803Z,2.40
2019-01-26T16:47:11.632Z,2.23
2019-01-26T16:49:22.435Z,1.53
2019-01-26T16:51:33.445Z,1.63
2019-01-26T16:53:44.244Z,1.97
2019-01-26T16:55:55.083Z,1.33
2019-01-26T16:58:06.100Z,2.17
2019-01-26T17:00:37.999Z,2.83
2019-01-26T17:02:48.940Z,2.00
2019-01-26T17:04:59.783Z,1.83
2019-01-26T17:07:10.646Z,1.83
2019-01-26T17:09:21.467Z,2.23
2019-01-26T17:11:32.337Z,1.90
2019-01-26T17:13:43.168Z,2.07
2019-01-26T17:15:53.977Z,2.37
2019-01-26T17:18:05.145Z,2.20
2019-01-26T17:20:36.866Z,2.23
2019-01-26T17:22:47.707Z,2.30
2019-01-26T17:24:58.593Z,2.60
2019-01-26T17:27:09.423Z,3.17
2019-01-26T17:29:20.258Z,2.73
2019-01-26T17:31:31.094Z,2.10
2019-01-26T17:33:41.909Z,5.20
2019-01-26T17:35:52.709Z,2.33
2019-01-26T17:38:45.211Z,3.03
2019-01-26T17:40:56.017Z,1.93
2019-01-26T17:43:06.851Z,3.27
2019-01-26T17:45:59.298Z,2.47
2019-01-26T17:48:10.130Z,2.57
2019-01-26T17:51:02.581Z,2.73
2019-01-26T17:57:47.820Z,1.60
2019-01-26T17:59:58.659Z,1.83
2019-01-26T18:02:09.678Z,1.73
2019-01-26T18:04:20.522Z,1.83
2019-01-26T18:06:31.429Z,3.10
2019-01-26T18:08:42.380Z,1.63
2019-01-26T18:10:53.303Z,2.47
2019-01-26T18:13:04.341Z,2.77
2019-01-26T18:15:36.940Z,1.83
2019-01-26T18:17:47.764Z,2.23
2019-01-26T18:19:58.689Z,2.20
2019-01-26T18:22:09.575Z,2.03
2019-01-26T18:26:37.474Z,1.60
2019-01-26T18:28:48.402Z,2.37
2019-01-26T18:33:16.169Z,2.53
2019-01-26T18:35:27.218Z,2.47
2019-01-26T18:37:38.140Z,2.30
2019-01-26T18:39:49.025Z,2.60
2019-01-26T18:41:59.880Z,2.13
2019-01-26T18:44:10.707Z,2.50
2019-01-26T18:46:21.570Z,2.20
2019-01-26T18:48:32.389Z,2.57
2019-01-26T18:51:05.040Z,1.80
2019-01-26T18:53:15.825Z,2.20
2019-01-26T18:58:25.262Z,2.10
2019-01-26T19:01:17.734Z,1.43
2019-01-26T19:04:10.189Z,1.80
2019-01-26T19:06:21.179Z,3.67
2019-01-26T19:08:32.019Z,1.37
2019-01-26T19:10:42.957Z,2.13
2019-01-26T19:15:35.723Z,2.30
2019-01-26T19:17:46.672Z,2.80
2019-01-26T19:19:57.482Z,2.67
2019-01-26T19:22:08.521Z,3.57
2019-01-26T19:24:19.336Z,2.10
2019-01-26T19:26:30.187Z,2.00
2019-01-26T19:28:41.303Z,3.07
2019-01-26T19:30:52.084Z,3.83
2019-01-26T19:33:03.101Z,2.50
2019-01-26T19:35:55.552Z,2.57
2019-01-26T19:38:06.405Z,2.70
2019-01-26T19:40:58.851Z,3.30
2019-01-26T19:43:09.779Z,2.37
2019-01-26T19:46:02.242Z,2.57
2019-01-26T19:48:13.145Z,1.80
2019-01-26T19:51:09.923Z,2.40
2019-01-26T19:53:18.376Z,2.03
2019-01-26T19:55:29.191Z,1.90
2019-01-26T19:57:40.111Z,2.53
2019-01-26T19:59:50.954Z,2.33
2019-01-26T20:02:01.888Z,3.20
2019-01-26T20:04:12.714Z,3.30
2019-01-26T20:06:23.645Z,2.17
2019-01-26T20:08:34.484Z,2.10
2019-01-26T20:10:52.759Z,2.17
2019-01-26T20:13:03.847Z,2.97
2019-01-26T20:15:34.515Z,2.53
2019-01-26T20:18:26.998Z,2.10
2019-01-26T20:23:36.043Z,2.50
2019-01-26T20:25:46.862Z,2.93
2019-01-26T20:27:57.819Z,1.90
2019-01-26T20:30:50.316Z,2.57
2019-01-26T20:33:01.239Z,1.83
2019-01-26T20:35:12.234Z,2.20
2019-01-26T20:37:23.042Z,1.80
2019-01-26T20:39:33.854Z,1.83
2019-01-26T20:41:44.702Z,2.30
2019-01-26T20:43:55.526Z,2.43
2019-01-26T20:46:06.385Z,2.30
2019-01-26T20:48:17.400Z,2.07
2019-01-26T20:50:28.284Z,2.17
2019-01-26T20:52:39.207Z,1.97
2019-01-26T20:54:50.072Z,1.90
2019-01-26T20:57:00.897Z,1.90
2019-01-26T20:59:11.824Z,2.80
2019-01-26T21:01:22.658Z,2.63
2019-01-26T21:03:33.563Z,2.00
2019-01-26T21:08:00.887Z,1.77
2019-01-26T21:10:53.372Z,2.37
2019-01-26T21:13:17.919Z,2.63
2019-01-26T21:15:28.945Z,3.13
2019-01-26T21:17:39.801Z,2.40
2019-01-26T21:19:50.724Z,1.97
2019-01-26T21:22:01.567Z,2.40
2019-01-26T21:24:12.402Z,3.03
2019-01-26T21:26:23.331Z,2.73
2019-01-26T21:28:34.257Z,3.17
2019-01-26T21:30:45.081Z,1.97
2019-01-26T21:32:56.022Z,2.30
2019-01-26T21:35:48.498Z,2.43
2019-01-26T21:37:59.364Z,2.27
2019-01-26T21:40:51.800Z,2.40
2019-01-26T21:43:02.729Z,2.20
2019-01-26T21:45:55.193Z,2.63
2019-01-26T21:48:06.111Z,3.07
2019-01-26T21:50:58.552Z,2.10
2019-01-26T21:53:09.499Z,2.37
2019-01-26T21:55:20.422Z,2.10
2019-01-26T21:57:31.220Z,3.03
2019-01-26T21:59:42.046Z,2.53
2019-01-26T22:01:52.964Z,2.93
2019-01-26T22:04:03.805Z,2.93
2019-01-26T22:06:14.703Z,3.80
2019-01-26T22:08:25.551Z,2.47
2019-01-26T22:10:36.357Z,2.10
2019-01-26T22:12:47.382Z,2.60
2019-01-26T22:14:58.224Z,2.57
2019-01-26T22:17:09.033Z,2.27
2019-01-26T22:19:21.911Z,2.40
2019-01-26T22:21:32.768Z,3.83
2019-01-26T22:24:03.466Z,3.63
2019-01-26T22:26:14.273Z,2.67
2019-01-26T22:28:25.074Z,2.67
2019-01-26T22:35:38.842Z,2.93
2019-01-26T22:37:49.841Z,2.07
2019-01-26T22:40:00.663Z,2.00
2019-01-26T22:42:11.452Z,2.20
2019-01-26T22:44:22.267Z,2.67
2019-01-26T22:46:33.180Z,3.20
2019-01-26T22:48:44.002Z,2.13
2019-01-26T22:50:54.832Z,2.93
2019-01-26T22:53:05.669Z,2.00
2019-01-26T22:55:58.218Z,2.77
2019-01-26T22:58:09.137Z,2.30
2019-01-26T23:01:00.748Z,3.20
2019-01-26T23:03:11.564Z,2.57
2019-01-26T23:06:04.022Z,2.47
2019-01-26T23:08:56.478Z,2.27
2019-01-26T23:11:47.033Z,2.43
2019-01-26T23:14:39.541Z,2.03
2019-01-26T23:17:32.001Z,2.30
2019-01-26T23:20:24.483Z,1.77
2019-01-26T23:23:15.019Z,2.50
2019-01-26T23:26:05.596Z,3.37
2019-01-26T23:28:58.053Z,2.47
2019-01-26T23:31:28.750Z,3.53
2019-01-26T23:33:39.764Z,3.80
2019-01-26T23:35:50.585Z,2.37
2019-01-26T23:38:01.424Z,2.07
2019-01-26T23:40:53.866Z,1.50
2019-01-26T23:43:04.684Z,2.00
2019-01-26T23:45:15.595Z,1.63
2019-01-26T23:47:26.434Z,2.23
2019-01-26T23:49:37.237Z,2.47
2019-01-26T23:51:48.102Z,2.40
2019-01-26T23:53:58.922Z,2.13
2019-01-26T23:56:09.753Z,1.83
2019-01-26T23:58:20.569Z,1.97
